VOZ48BG YBCS-YBBN
Flight info
| Callsign | VOZ48BG |
|---|---|
| Flight time | 1h 40m |
| Altitude | 39000 |
| Route | CS Y177 BN |
| Aircraft | B38M/M-SDE1FGHILORVWXY/HB1 |
Departure
| Time | 2026-05-05 19:35 |
|---|---|
| Airport | Cairns International Airport (YBCS) |
Arrival
| Time | 2026-05-05 21:15 |
|---|---|
| Airport | Brisbane International Airport (YBBN) |
| Time | Latitude | Longitude | Altitude | Speed | Heading |
|---|---|---|---|---|---|
| 2026-05-05 19:05 | -16.87664 | 145.75245 | 19 ft | 0 kts | 66° |
| 2026-05-05 19:24 | -16.87664 | 145.75244 | 19 ft | 0 kts | 49° |
| 2026-05-05 19:24 | -16.87664 | 145.75242 | 19 ft | 0 kts | 15° |
| 2026-05-05 19:24 | -16.87665 | 145.75241 | 22 ft | 0 kts | 358° |
| 2026-05-05 19:24 | -16.87666 | 145.75241 | 19 ft | 0 kts | 340° |
| 2026-05-05 19:25 | -16.87668 | 145.75240 | 19 ft | 0 kts | 307° |
| 2026-05-05 19:29 | -16.87662 | 145.75233 | 20 ft | 6 kts | 307° |
| 2026-05-05 19:29 | -16.87635 | 145.75183 | 19 ft | 8 kts | 284° |
| 2026-05-05 19:30 | -16.87635 | 145.75119 | 19 ft | 8 kts | 248° |
| 2026-05-05 19:30 | -16.87651 | 145.75057 | 19 ft | 9 kts | 287° |
| 2026-05-05 19:30 | -16.87598 | 145.75013 | 19 ft | 11 kts | 330° |
| 2026-05-05 19:30 | -16.87522 | 145.74975 | 19 ft | 13 kts | 335° |
| 2026-05-05 19:31 | -16.87432 | 145.74938 | 5 ft | 15 kts | 337° |
| 2026-05-05 19:31 | -16.87325 | 145.74890 | 5 ft | 18 kts | 337° |
| 2026-05-05 19:31 | -16.87195 | 145.74833 | 5 ft | 22 kts | 335° |
| 2026-05-05 19:31 | -16.87068 | 145.74769 | 5 ft | 16 kts | 318° |
| 2026-05-05 19:32 | -16.87059 | 145.74678 | 4 ft | 9 kts | 248° |
| 2026-05-05 19:32 | -16.87076 | 145.74606 | 3 ft | 12 kts | 284° |
| 2026-05-05 19:32 | -16.87009 | 145.74547 | 3 ft | 16 kts | 336° |
| 2026-05-05 19:32 | -16.86861 | 145.74481 | 4 ft | 29 kts | 336° |
| 2026-05-05 19:33 | -16.86690 | 145.74412 | 5 ft | 21 kts | 358° |
| 2026-05-05 19:33 | -16.86589 | 145.74394 | 6 ft | 11 kts | 287° |
| 2026-05-05 19:33 | -16.86622 | 145.74371 | 6 ft | 6 kts | 156° |
| 2026-05-05 19:33 | -16.86628 | 145.74373 | 6 ft | 0 kts | 155° |
| 2026-05-05 19:34 | -16.86820 | 145.74461 | 4 ft | 70 kts | 156° |
| 2026-05-05 19:34 | -16.87493 | 145.74767 | 16 ft | 138 kts | 156° |
| 2026-05-05 19:35 | -16.89588 | 145.75765 | 1002 ft | 172 kts | 157° |
| 2026-05-05 19:35 | -16.90658 | 145.76249 | 1937 ft | 171 kts | 156° |
| 2026-05-05 19:35 | -16.91811 | 145.76771 | 2650 ft | 188 kts | 156° |
| 2026-05-05 19:35 | -16.93008 | 145.77311 | 3683 ft | 184 kts | 154° |
| 2026-05-05 19:36 | -16.94181 | 145.77840 | 4698 ft | 186 kts | 152° |
| 2026-05-05 19:36 | -16.95363 | 145.78373 | 5655 ft | 188 kts | 153° |
| 2026-05-05 19:36 | -16.96581 | 145.78944 | 6539 ft | 198 kts | 149° |
| 2026-05-05 19:36 | -16.97787 | 145.79773 | 7119 ft | 218 kts | 141° |
| 2026-05-05 19:37 | -16.99060 | 145.80765 | 7751 ft | 238 kts | 142° |
| 2026-05-05 19:37 | -17.00451 | 145.81836 | 8391 ft | 259 kts | 143° |
| 2026-05-05 19:37 | -17.01960 | 145.82988 | 9038 ft | 278 kts | 143° |
| 2026-05-05 19:37 | -17.03571 | 145.84213 | 9735 ft | 294 kts | 144° |
| 2026-05-05 19:38 | -17.05266 | 145.85499 | 10420 ft | 308 kts | 144° |
| 2026-05-05 19:38 | -17.07061 | 145.86861 | 10917 ft | 329 kts | 144° |
| 2026-05-05 19:38 | -17.08973 | 145.88308 | 11345 ft | 349 kts | 144° |
| 2026-05-05 19:38 | -17.10982 | 145.89832 | 11764 ft | 367 kts | 144° |
| 2026-05-05 19:39 | -17.13078 | 145.91422 | 12308 ft | 378 kts | 144° |
| 2026-05-05 19:39 | -17.15233 | 145.93056 | 12960 ft | 385 kts | 144° |
| 2026-05-05 19:39 | -17.17413 | 145.94712 | 13601 ft | 391 kts | 144° |
| 2026-05-05 19:39 | -17.19623 | 145.96391 | 14260 ft | 395 kts | 145° |
| 2026-05-05 19:40 | -17.21864 | 145.98093 | 14856 ft | 400 kts | 144° |
| 2026-05-05 19:40 | -17.24131 | 145.99816 | 15447 ft | 405 kts | 144° |
| 2026-05-05 19:40 | -17.26424 | 146.01559 | 16029 ft | 409 kts | 144° |
| 2026-05-05 19:40 | -17.28739 | 146.03319 | 16600 ft | 414 kts | 144° |
| 2026-05-05 19:41 | -17.31074 | 146.05095 | 17156 ft | 418 kts | 144° |
| 2026-05-05 19:41 | -17.33439 | 146.06894 | 17713 ft | 423 kts | 144° |
| 2026-05-05 19:41 | -17.35801 | 146.08692 | 18244 ft | 427 kts | 144° |
| 2026-05-05 19:41 | -17.38246 | 146.10553 | 18696 ft | 431 kts | 144° |
| 2026-05-05 19:42 | -17.40682 | 146.12408 | 19159 ft | 434 kts | 144° |
| 2026-05-05 19:42 | -17.43104 | 146.14253 | 19598 ft | 438 kts | 144° |
| 2026-05-05 19:42 | -17.45577 | 146.16140 | 20051 ft | 442 kts | 145° |
| 2026-05-05 19:42 | -17.48070 | 146.18039 | 20501 ft | 445 kts | 145° |
| 2026-05-05 19:43 | -17.50576 | 146.19950 | 20941 ft | 448 kts | 145° |
| 2026-05-05 19:43 | -17.53104 | 146.21878 | 21383 ft | 452 kts | 145° |
| 2026-05-05 19:43 | -17.55710 | 146.23738 | 21780 ft | 455 kts | 148° |
| 2026-05-05 19:43 | -17.58359 | 146.25583 | 22211 ft | 458 kts | 148° |
| 2026-05-05 19:44 | -17.61019 | 146.27449 | 22636 ft | 462 kts | 148° |
| 2026-05-05 19:44 | -17.63698 | 146.29333 | 23042 ft | 465 kts | 148° |
| 2026-05-05 19:44 | -17.66395 | 146.31231 | 23453 ft | 468 kts | 148° |
| 2026-05-05 19:44 | -17.69107 | 146.33141 | 23798 ft | 471 kts | 148° |
| 2026-05-05 19:45 | -17.71824 | 146.35055 | 24136 ft | 474 kts | 148° |
| 2026-05-05 19:45 | -17.74563 | 146.36985 | 24485 ft | 476 kts | 148° |
| 2026-05-05 19:45 | -17.77322 | 146.38930 | 24821 ft | 479 kts | 148° |
| 2026-05-05 19:45 | -17.80094 | 146.40885 | 25156 ft | 481 kts | 148° |
| 2026-05-05 19:46 | -17.82884 | 146.42853 | 25491 ft | 484 kts | 148° |
| 2026-05-05 19:46 | -17.85687 | 146.44831 | 25822 ft | 486 kts | 149° |
| 2026-05-05 19:46 | -17.88502 | 146.46818 | 26152 ft | 489 kts | 149° |
| 2026-05-05 19:46 | -17.91327 | 146.48813 | 26452 ft | 492 kts | 149° |
| 2026-05-05 19:47 | -17.94184 | 146.50832 | 26784 ft | 495 kts | 149° |
| 2026-05-05 19:47 | -17.97045 | 146.52854 | 27087 ft | 497 kts | 149° |
| 2026-05-05 19:47 | -17.99919 | 146.54887 | 27397 ft | 500 kts | 149° |
| 2026-05-05 19:47 | -18.02810 | 146.56931 | 27700 ft | 502 kts | 149° |
| 2026-05-05 19:48 | -18.05715 | 146.58987 | 28005 ft | 505 kts | 149° |
| 2026-05-05 19:48 | -18.08632 | 146.61052 | 28298 ft | 507 kts | 149° |
| 2026-05-05 19:48 | -18.11527 | 146.63103 | 28591 ft | 509 kts | 150° |
| 2026-05-05 19:48 | -18.14462 | 146.65183 | 28883 ft | 512 kts | 150° |
| 2026-05-05 19:49 | -18.17424 | 146.67282 | 29167 ft | 514 kts | 150° |
| 2026-05-05 19:49 | -18.19430 | 146.68704 | 29365 ft | 516 kts | 150° |
| 2026-05-05 19:49 | -18.23378 | 146.71505 | 29729 ft | 519 kts | 150° |
| 2026-05-05 19:49 | -18.26376 | 146.73633 | 30001 ft | 521 kts | 150° |
| 2026-05-05 19:50 | -18.29384 | 146.75769 | 30237 ft | 523 kts | 150° |
| 2026-05-05 19:50 | -18.32405 | 146.77914 | 30469 ft | 525 kts | 150° |
| 2026-05-05 19:50 | -18.35454 | 146.80009 | 30730 ft | 523 kts | 154° |
| 2026-05-05 19:50 | -18.38618 | 146.81905 | 31053 ft | 522 kts | 155° |
| 2026-05-05 19:51 | -18.41783 | 146.83776 | 31377 ft | 522 kts | 155° |
| 2026-05-05 19:51 | -18.44948 | 146.85635 | 31709 ft | 521 kts | 155° |
| 2026-05-05 19:51 | -18.48112 | 146.87492 | 32052 ft | 520 kts | 155° |
| 2026-05-05 19:51 | -18.51274 | 146.89348 | 32400 ft | 520 kts | 155° |
| 2026-05-05 19:52 | -18.54416 | 146.91193 | 32767 ft | 519 kts | 156° |
| 2026-05-05 19:52 | -18.57578 | 146.93051 | 33103 ft | 519 kts | 156° |
| 2026-05-05 19:52 | -18.60742 | 146.94911 | 33455 ft | 519 kts | 156° |
| 2026-05-05 19:52 | -18.63893 | 146.96763 | 33808 ft | 519 kts | 156° |
| 2026-05-05 19:53 | -18.67047 | 146.98618 | 34152 ft | 518 kts | 156° |
| 2026-05-05 19:53 | -18.70193 | 147.00470 | 34458 ft | 517 kts | 156° |
| 2026-05-05 19:53 | -18.73337 | 147.02321 | 34766 ft | 517 kts | 156° |
| 2026-05-05 19:53 | -18.76466 | 147.04164 | 35061 ft | 516 kts | 156° |
| 2026-05-05 19:54 | -18.79603 | 147.06012 | 35389 ft | 515 kts | 156° |
| 2026-05-05 19:54 | -18.82725 | 147.07852 | 35730 ft | 514 kts | 156° |
| 2026-05-05 19:54 | -18.85841 | 147.09690 | 36044 ft | 513 kts | 156° |
| 2026-05-05 19:54 | -18.88964 | 147.11532 | 36354 ft | 513 kts | 156° |
| 2026-05-05 19:55 | -18.92072 | 147.13367 | 36644 ft | 513 kts | 156° |
| 2026-05-05 19:55 | -18.95145 | 147.15181 | 36939 ft | 512 kts | 156° |
| 2026-05-05 19:55 | -18.98236 | 147.17007 | 37236 ft | 511 kts | 156° |
| 2026-05-05 19:55 | -19.01339 | 147.18841 | 37525 ft | 510 kts | 156° |
| 2026-05-05 19:56 | -19.04444 | 147.20677 | 37812 ft | 510 kts | 156° |
| 2026-05-05 19:56 | -19.07538 | 147.22507 | 38095 ft | 509 kts | 156° |
| 2026-05-05 19:56 | -19.10626 | 147.24335 | 38362 ft | 508 kts | 157° |
| 2026-05-05 19:56 | -19.13702 | 147.26155 | 38623 ft | 507 kts | 157° |
| 2026-05-05 19:57 | -19.16783 | 147.27980 | 38839 ft | 506 kts | 157° |
| 2026-05-05 19:57 | -19.18818 | 147.29186 | 38971 ft | 506 kts | 157° |
| 2026-05-05 19:57 | -19.22922 | 147.31619 | 38998 ft | 506 kts | 157° |
| 2026-05-05 19:58 | -19.29045 | 147.35251 | 38992 ft | 504 kts | 157° |
| 2026-05-05 19:58 | -19.35170 | 147.38888 | 38988 ft | 505 kts | 157° |
| 2026-05-05 19:59 | -19.41295 | 147.42527 | 38991 ft | 505 kts | 157° |
| 2026-05-05 19:59 | -19.47373 | 147.46141 | 38991 ft | 505 kts | 157° |
| 2026-05-05 20:00 | -19.53497 | 147.49786 | 38998 ft | 506 kts | 157° |
| 2026-05-05 20:00 | -19.59641 | 147.53447 | 39000 ft | 507 kts | 157° |
| 2026-05-05 20:01 | -19.65779 | 147.57106 | 39001 ft | 507 kts | 157° |
| 2026-05-05 20:01 | -19.71923 | 147.60772 | 38999 ft | 507 kts | 157° |
| 2026-05-05 20:02 | -19.78071 | 147.64441 | 38999 ft | 507 kts | 157° |
| 2026-05-05 20:02 | -19.84217 | 147.68112 | 39015 ft | 507 kts | 157° |
| 2026-05-05 20:03 | -19.90363 | 147.71787 | 39010 ft | 509 kts | 157° |
| 2026-05-05 20:03 | -19.96533 | 147.75479 | 39013 ft | 509 kts | 157° |
| 2026-05-05 20:04 | -20.02660 | 147.79149 | 39014 ft | 509 kts | 157° |
| 2026-05-05 20:04 | -20.08816 | 147.82840 | 39014 ft | 509 kts | 157° |
| 2026-05-05 20:05 | -20.14979 | 147.86538 | 39015 ft | 508 kts | 157° |
| 2026-05-05 20:05 | -20.21149 | 147.90244 | 39012 ft | 510 kts | 158° |
| 2026-05-05 20:06 | -20.27329 | 147.93958 | 39016 ft | 510 kts | 158° |
| 2026-05-05 20:06 | -20.33511 | 147.97679 | 39015 ft | 511 kts | 158° |
| 2026-05-05 20:07 | -20.39691 | 148.01401 | 39020 ft | 511 kts | 158° |
| 2026-05-05 20:07 | -20.45882 | 148.05133 | 39031 ft | 511 kts | 158° |
| 2026-05-05 20:08 | -20.52060 | 148.08861 | 39027 ft | 511 kts | 158° |
| 2026-05-05 20:08 | -20.58213 | 148.12577 | 39049 ft | 512 kts | 158° |
| 2026-05-05 20:09 | -20.64450 | 148.16348 | 39033 ft | 511 kts | 158° |
| 2026-05-05 20:09 | -20.70603 | 148.20071 | 39034 ft | 512 kts | 158° |
| 2026-05-05 20:10 | -20.76779 | 148.23812 | 39039 ft | 511 kts | 158° |
| 2026-05-05 20:10 | -20.82973 | 148.27567 | 39043 ft | 513 kts | 158° |
| 2026-05-05 20:11 | -20.89190 | 148.31340 | 39047 ft | 514 kts | 158° |
| 2026-05-05 20:11 | -20.95387 | 148.35104 | 39031 ft | 513 kts | 158° |
| 2026-05-05 20:12 | -21.01599 | 148.38883 | 39048 ft | 514 kts | 158° |
| 2026-05-05 20:12 | -21.07812 | 148.42659 | 39023 ft | 513 kts | 158° |
| 2026-05-05 20:13 | -21.14028 | 148.46448 | 39077 ft | 514 kts | 158° |
| 2026-05-05 20:13 | -21.20240 | 148.50235 | 39064 ft | 515 kts | 158° |
| 2026-05-05 20:14 | -21.25423 | 148.53400 | 39040 ft | 515 kts | 158° |
| 2026-05-05 20:14 | -21.32666 | 148.57824 | 39057 ft | 515 kts | 158° |
| 2026-05-05 20:15 | -21.38879 | 148.61624 | 39038 ft | 515 kts | 158° |
| 2026-05-05 20:15 | -21.44096 | 148.64818 | 39049 ft | 516 kts | 157° |
| 2026-05-05 20:16 | -21.50323 | 148.68633 | 39061 ft | 515 kts | 158° |
| 2026-05-05 20:16 | -21.56555 | 148.72455 | 39037 ft | 515 kts | 157° |
| 2026-05-05 20:17 | -21.62763 | 148.76266 | 39042 ft | 515 kts | 158° |
| 2026-05-05 20:17 | -21.68951 | 148.80070 | 39042 ft | 515 kts | 158° |
| 2026-05-05 20:18 | -21.75173 | 148.83897 | 39048 ft | 515 kts | 158° |
| 2026-05-05 20:18 | -21.81433 | 148.87751 | 39048 ft | 517 kts | 158° |
| 2026-05-05 20:19 | -21.87638 | 148.91576 | 39045 ft | 517 kts | 158° |
| 2026-05-05 20:19 | -21.93886 | 148.95431 | 39045 ft | 517 kts | 158° |
| 2026-05-05 20:20 | -22.00137 | 148.99292 | 39045 ft | 517 kts | 158° |
| 2026-05-05 20:20 | -22.06364 | 149.03142 | 39049 ft | 517 kts | 158° |
| 2026-05-05 20:21 | -22.12613 | 149.07009 | 39052 ft | 518 kts | 158° |
| 2026-05-05 20:21 | -22.18872 | 149.10887 | 39054 ft | 519 kts | 158° |
| 2026-05-05 20:22 | -22.25120 | 149.14762 | 39045 ft | 519 kts | 158° |
| 2026-05-05 20:22 | -22.31379 | 149.18648 | 39043 ft | 519 kts | 158° |
| 2026-05-05 20:23 | -22.37601 | 149.22515 | 39054 ft | 519 kts | 158° |
| 2026-05-05 20:23 | -22.43869 | 149.26414 | 39065 ft | 519 kts | 158° |
| 2026-05-05 20:24 | -22.50127 | 149.30312 | 39057 ft | 520 kts | 158° |
| 2026-05-05 20:24 | -22.56407 | 149.34227 | 39045 ft | 520 kts | 158° |
| 2026-05-05 20:25 | -22.62680 | 149.38141 | 39031 ft | 521 kts | 158° |
| 2026-05-05 20:25 | -22.68944 | 149.42057 | 39068 ft | 521 kts | 157° |
| 2026-05-05 20:26 | -22.75218 | 149.45980 | 39065 ft | 520 kts | 158° |
| 2026-05-05 20:26 | -22.81457 | 149.49884 | 39061 ft | 522 kts | 157° |
| 2026-05-05 20:27 | -22.87738 | 149.53822 | 39037 ft | 521 kts | 157° |
| 2026-05-05 20:27 | -22.94004 | 149.57752 | 39062 ft | 521 kts | 157° |
| 2026-05-05 20:28 | -23.00284 | 149.61696 | 39057 ft | 521 kts | 157° |
| 2026-05-05 20:28 | -23.06560 | 149.65654 | 39069 ft | 521 kts | 157° |
| 2026-05-05 20:29 | -23.12813 | 149.69605 | 39064 ft | 522 kts | 157° |
| 2026-05-05 20:29 | -23.18898 | 149.73452 | 39050 ft | 522 kts | 157° |
| 2026-05-05 20:30 | -23.25174 | 149.77424 | 39069 ft | 522 kts | 157° |
| 2026-05-05 20:30 | -23.31454 | 149.81403 | 39057 ft | 522 kts | 157° |
| 2026-05-05 20:31 | -23.37716 | 149.85376 | 39063 ft | 522 kts | 157° |
| 2026-05-05 20:31 | -23.43988 | 149.89360 | 39074 ft | 522 kts | 157° |
| 2026-05-05 20:32 | -23.50230 | 149.93328 | 39064 ft | 522 kts | 157° |
| 2026-05-05 20:32 | -23.56492 | 149.97313 | 39063 ft | 522 kts | 157° |
| 2026-05-05 20:33 | -23.62767 | 150.01312 | 39065 ft | 522 kts | 157° |
| 2026-05-05 20:33 | -23.69047 | 150.05317 | 39063 ft | 522 kts | 157° |
| 2026-05-05 20:34 | -23.75327 | 150.09328 | 39076 ft | 523 kts | 157° |
| 2026-05-05 20:34 | -23.81600 | 150.13339 | 39071 ft | 523 kts | 157° |
| 2026-05-05 20:35 | -23.87840 | 150.17333 | 39063 ft | 523 kts | 157° |
| 2026-05-05 20:35 | -23.94130 | 150.21363 | 39069 ft | 524 kts | 157° |
| 2026-05-05 20:36 | -24.00395 | 150.25382 | 39070 ft | 524 kts | 157° |
| 2026-05-05 20:36 | -24.06682 | 150.29420 | 39077 ft | 524 kts | 157° |
| 2026-05-05 20:37 | -24.12976 | 150.33467 | 39073 ft | 524 kts | 157° |
| 2026-05-05 20:37 | -24.19257 | 150.37510 | 39078 ft | 525 kts | 157° |
| 2026-05-05 20:38 | -24.25560 | 150.41572 | 39074 ft | 525 kts | 157° |
| 2026-05-05 20:38 | -24.31851 | 150.45631 | 39074 ft | 524 kts | 157° |
| 2026-05-05 20:39 | -24.38098 | 150.49666 | 39095 ft | 527 kts | 157° |
| 2026-05-05 20:39 | -24.44406 | 150.53745 | 39081 ft | 528 kts | 157° |
| 2026-05-05 20:40 | -24.50674 | 150.57991 | 39086 ft | 532 kts | 153° |
| 2026-05-05 20:40 | -24.56824 | 150.62521 | 39084 ft | 531 kts | 154° |
| 2026-05-05 20:41 | -24.62970 | 150.67001 | 39088 ft | 531 kts | 153° |
| 2026-05-05 20:41 | -24.69130 | 150.71493 | 39091 ft | 531 kts | 154° |
| 2026-05-05 20:42 | -24.75288 | 150.75989 | 39092 ft | 531 kts | 153° |
| 2026-05-05 20:42 | -24.81447 | 150.80491 | 39095 ft | 531 kts | 153° |
| 2026-05-05 20:43 | -24.87551 | 150.84958 | 39100 ft | 531 kts | 153° |
| 2026-05-05 20:43 | -24.93715 | 150.89475 | 39093 ft | 531 kts | 153° |
| 2026-05-05 20:44 | -24.99872 | 150.93991 | 39119 ft | 532 kts | 154° |
| 2026-05-05 20:44 | -25.06038 | 150.98521 | 39095 ft | 534 kts | 154° |
| 2026-05-05 20:45 | -25.15317 | 151.05348 | 39097 ft | 534 kts | 153° |
| 2026-05-05 20:45 | -25.21497 | 151.09901 | 39096 ft | 534 kts | 153° |
| 2026-05-05 20:46 | -25.27671 | 151.14456 | 39097 ft | 535 kts | 153° |
| 2026-05-05 20:46 | -25.33861 | 151.19028 | 39115 ft | 535 kts | 154° |
| 2026-05-05 20:47 | -25.40013 | 151.23578 | 39099 ft | 536 kts | 154° |
| 2026-05-05 20:47 | -25.46242 | 151.28191 | 39099 ft | 537 kts | 154° |
| 2026-05-05 20:48 | -25.52408 | 151.32762 | 39099 ft | 537 kts | 154° |
| 2026-05-05 20:48 | -25.58616 | 151.37371 | 39099 ft | 537 kts | 154° |
| 2026-05-05 20:49 | -25.64822 | 151.41983 | 39124 ft | 537 kts | 154° |
| 2026-05-05 20:49 | -25.71023 | 151.46597 | 39105 ft | 539 kts | 154° |
| 2026-05-05 20:50 | -25.76764 | 151.52038 | 39112 ft | 551 kts | 136° |
| 2026-05-05 20:50 | -25.81977 | 151.58294 | 39088 ft | 553 kts | 137° |
| 2026-05-05 20:51 | -25.87174 | 151.64593 | 39105 ft | 554 kts | 137° |
| 2026-05-05 20:51 | -25.92375 | 151.70918 | 39110 ft | 554 kts | 137° |
| 2026-05-05 20:52 | -25.97539 | 151.77206 | 39111 ft | 554 kts | 137° |
| 2026-05-05 20:52 | -26.02727 | 151.83534 | 39050 ft | 556 kts | 137° |
| 2026-05-05 20:53 | -26.05332 | 151.86714 | 38828 ft | 555 kts | 137° |
| 2026-05-05 20:53 | -26.07925 | 151.89882 | 37858 ft | 558 kts | 137° |
| 2026-05-05 20:53 | -26.10549 | 151.93092 | 37170 ft | 557 kts | 137° |
| 2026-05-05 20:53 | -26.13138 | 151.96258 | 36671 ft | 551 kts | 137° |
| 2026-05-05 20:54 | -26.15713 | 151.99412 | 36063 ft | 549 kts | 137° |
| 2026-05-05 20:54 | -26.18264 | 152.02536 | 35433 ft | 547 kts | 137° |
| 2026-05-05 20:54 | -26.20820 | 152.05671 | 34785 ft | 546 kts | 137° |
| 2026-05-05 20:54 | -26.23369 | 152.08798 | 34139 ft | 545 kts | 137° |
| 2026-05-05 20:55 | -26.25888 | 152.11892 | 33390 ft | 544 kts | 136° |
| 2026-05-05 20:55 | -26.28429 | 152.15014 | 32603 ft | 544 kts | 136° |
| 2026-05-05 20:55 | -26.30967 | 152.18135 | 31847 ft | 543 kts | 136° |
| 2026-05-05 20:55 | -26.33503 | 152.21254 | 31055 ft | 543 kts | 136° |
| 2026-05-05 20:56 | -26.36023 | 152.24357 | 30291 ft | 542 kts | 135° |
| 2026-05-05 20:56 | -26.38551 | 152.27472 | 29410 ft | 542 kts | 135° |
| 2026-05-05 20:56 | -26.41078 | 152.30588 | 28465 ft | 541 kts | 135° |
| 2026-05-05 20:56 | -26.43606 | 152.33706 | 27504 ft | 542 kts | 135° |
| 2026-05-05 20:57 | -26.46135 | 152.36829 | 26452 ft | 544 kts | 134° |
| 2026-05-05 20:57 | -26.48661 | 152.39951 | 25198 ft | 540 kts | 134° |
| 2026-05-05 20:57 | -26.51179 | 152.43064 | 24006 ft | 536 kts | 134° |
| 2026-05-05 20:57 | -26.53645 | 152.46116 | 22807 ft | 528 kts | 133° |
| 2026-05-05 20:58 | -26.56090 | 152.49144 | 21595 ft | 520 kts | 133° |
| 2026-05-05 20:58 | -26.58487 | 152.52110 | 20474 ft | 508 kts | 133° |
| 2026-05-05 20:58 | -26.60813 | 152.54995 | 19725 ft | 492 kts | 132° |
| 2026-05-05 20:58 | -26.63086 | 152.57818 | 18966 ft | 484 kts | 132° |
| 2026-05-05 20:59 | -26.65320 | 152.60590 | 18200 ft | 477 kts | 132° |
| 2026-05-05 20:59 | -26.67520 | 152.63321 | 17359 ft | 467 kts | 132° |
| 2026-05-05 20:59 | -26.69626 | 152.65938 | 16421 ft | 456 kts | 132° |
| 2026-05-05 20:59 | -26.71727 | 152.68551 | 15478 ft | 447 kts | 132° |
| 2026-05-05 21:00 | -26.73784 | 152.71109 | 14575 ft | 437 kts | 133° |
| 2026-05-05 21:00 | -26.75794 | 152.73611 | 13668 ft | 426 kts | 133° |
| 2026-05-05 21:00 | -26.77747 | 152.76042 | 12696 ft | 416 kts | 134° |
| 2026-05-05 21:00 | -26.79951 | 152.78063 | 11763 ft | 410 kts | 148° |
| 2026-05-05 21:01 | -26.82347 | 152.79838 | 10841 ft | 411 kts | 147° |
| 2026-05-05 21:01 | -26.84674 | 152.81570 | 10143 ft | 393 kts | 147° |
| 2026-05-05 21:01 | -26.86929 | 152.83242 | 9146 ft | 384 kts | 146° |
| 2026-05-05 21:01 | -26.89134 | 152.84829 | 8534 ft | 366 kts | 150° |
| 2026-05-05 21:02 | -26.91273 | 152.86142 | 8524 ft | 335 kts | 150° |
| 2026-05-05 21:02 | -26.93118 | 152.87563 | 8227 ft | 315 kts | 134° |
| 2026-05-05 21:02 | -26.94556 | 152.89384 | 7896 ft | 308 kts | 131° |
| 2026-05-05 21:02 | -26.95950 | 152.91156 | 7743 ft | 298 kts | 131° |
| 2026-05-05 21:03 | -26.97293 | 152.92876 | 7618 ft | 288 kts | 131° |
| 2026-05-05 21:03 | -26.98570 | 152.94518 | 7504 ft | 279 kts | 131° |
| 2026-05-05 21:03 | -26.99822 | 152.96132 | 7400 ft | 269 kts | 130° |
| 2026-05-05 21:03 | -27.01035 | 152.97698 | 7166 ft | 265 kts | 130° |
| 2026-05-05 21:04 | -27.02226 | 152.99271 | 6887 ft | 263 kts | 127° |
| 2026-05-05 21:04 | -27.03306 | 153.00907 | 6760 ft | 260 kts | 126° |
| 2026-05-05 21:04 | -27.04365 | 153.02509 | 6655 ft | 251 kts | 126° |
| 2026-05-05 21:04 | -27.05056 | 153.03550 | 6595 ft | 246 kts | 126° |
| 2026-05-05 21:05 | -27.06391 | 153.05552 | 6391 ft | 237 kts | 126° |
| 2026-05-05 21:05 | -27.07039 | 153.06522 | 6323 ft | 231 kts | 126° |
| 2026-05-05 21:05 | -27.07985 | 153.07939 | 6192 ft | 223 kts | 126° |
| 2026-05-05 21:05 | -27.08902 | 153.09311 | 6024 ft | 217 kts | 126° |
| 2026-05-05 21:06 | -27.09793 | 153.10645 | 5874 ft | 210 kts | 126° |
| 2026-05-05 21:06 | -27.10425 | 153.12065 | 5718 ft | 201 kts | 100° |
| 2026-05-05 21:06 | -27.10548 | 153.13598 | 5567 ft | 193 kts | 95° |
| 2026-05-05 21:06 | -27.10630 | 153.15105 | 5470 ft | 193 kts | 95° |
| 2026-05-05 21:07 | -27.10701 | 153.16611 | 5339 ft | 193 kts | 94° |
| 2026-05-05 21:07 | -27.10761 | 153.18113 | 5225 ft | 192 kts | 94° |
| 2026-05-05 21:07 | -27.10912 | 153.19599 | 5092 ft | 191 kts | 105° |
| 2026-05-05 21:07 | -27.11272 | 153.21034 | 4974 ft | 192 kts | 107° |
| 2026-05-05 21:08 | -27.11639 | 153.22475 | 4858 ft | 192 kts | 107° |
| 2026-05-05 21:08 | -27.12275 | 153.23756 | 4697 ft | 189 kts | 137° |
| 2026-05-05 21:08 | -27.13391 | 153.24470 | 4571 ft | 189 kts | 158° |
| 2026-05-05 21:08 | -27.14610 | 153.24987 | 4477 ft | 185 kts | 158° |
| 2026-05-05 21:09 | -27.15853 | 153.25283 | 4308 ft | 184 kts | 181° |
| 2026-05-05 21:09 | -27.17093 | 153.24976 | 4191 ft | 183 kts | 196° |
| 2026-05-05 21:09 | -27.18266 | 153.24421 | 4046 ft | 184 kts | 201° |
| 2026-05-05 21:09 | -27.19419 | 153.23794 | 3832 ft | 184 kts | 203° |
| 2026-05-05 21:10 | -27.20565 | 153.23145 | 3600 ft | 184 kts | 204° |
| 2026-05-05 21:10 | -27.21700 | 153.22496 | 3407 ft | 181 kts | 203° |
| 2026-05-05 21:10 | -27.22809 | 153.21859 | 3166 ft | 177 kts | 204° |
| 2026-05-05 21:10 | -27.23887 | 153.21240 | 2942 ft | 172 kts | 203° |
| 2026-05-05 21:11 | -27.24942 | 153.20634 | 2719 ft | 168 kts | 203° |
| 2026-05-05 21:11 | -27.25967 | 153.20046 | 2497 ft | 164 kts | 203° |
| 2026-05-05 21:11 | -27.26974 | 153.19468 | 2292 ft | 160 kts | 202° |
| 2026-05-05 21:11 | -27.27962 | 153.18902 | 2114 ft | 156 kts | 202° |
| 2026-05-05 21:12 | -27.28886 | 153.18370 | 1907 ft | 145 kts | 201° |
| 2026-05-05 21:12 | -27.29765 | 153.17865 | 1757 ft | 140 kts | 201° |
| 2026-05-05 21:12 | -27.30621 | 153.17375 | 1536 ft | 137 kts | 202° |
| 2026-05-05 21:12 | -27.31476 | 153.16885 | 1347 ft | 138 kts | 202° |
| 2026-05-05 21:13 | -27.32336 | 153.16392 | 1169 ft | 139 kts | 203° |
| 2026-05-05 21:13 | -27.33191 | 153.15900 | 989 ft | 137 kts | 203° |
| 2026-05-05 21:13 | -27.34028 | 153.15409 | 841 ft | 136 kts | 205° |
| 2026-05-05 21:13 | -27.34854 | 153.14926 | 671 ft | 133 kts | 205° |
| 2026-05-05 21:14 | -27.35696 | 153.14452 | 429 ft | 137 kts | 207° |
| 2026-05-05 21:14 | -27.36543 | 153.13961 | 252 ft | 137 kts | 206° |
| 2026-05-05 21:14 | -27.37390 | 153.13476 | 85 ft | 136 kts | 207° |
| 2026-05-05 21:14 | -27.38186 | 153.13022 | 23 ft | 114 kts | 207° |
| 2026-05-05 21:15 | -27.38670 | 153.12744 | 23 ft | 47 kts | 207° |
| 2026-05-05 21:15 | -27.38904 | 153.12575 | 21 ft | 33 kts | 220° |